createdAt,value
2023-03-10T00:00:15.310Z,98768.00
2023-03-10T00:02:46.616Z,98773.44
2023-03-10T00:05:13.247Z,98774.56
2023-03-10T00:07:40.070Z,98765.63
2023-03-10T00:10:07.434Z,98764.03
2023-03-10T00:12:34.095Z,98760.53
2023-03-10T00:15:00.614Z,98758.91
2023-03-10T00:17:28.012Z,98759.72
2023-03-10T00:19:54.606Z,98753.50
2023-03-10T00:22:21.150Z,98749.97
2023-03-10T00:24:48.051Z,98746.47
2023-03-10T00:27:14.615Z,98752.69
2023-03-10T00:29:41.117Z,98764.66
2023-03-10T00:32:08.173Z,98744.91
2023-03-10T00:34:34.708Z,98750.31
2023-03-10T00:37:01.259Z,98750.31
2023-03-10T00:39:28.012Z,98752.22
2023-03-10T00:41:54.546Z,98751.75
2023-03-10T00:44:21.241Z,98752.53
2023-03-10T00:46:47.926Z,98754.44
2023-03-10T00:49:16.559Z,98749.81
2023-03-10T00:51:43.215Z,98733.88
2023-03-10T00:54:10.209Z,98741.22
2023-03-10T00:56:37.022Z,98745.03
2023-03-10T00:59:04.450Z,98732.31
2023-03-10T01:01:36.782Z,98730.69
2023-03-10T01:04:06.346Z,98729.88
2023-03-10T01:06:33.383Z,98732.59
2023-03-10T01:09:00.867Z,98734.19
2023-03-10T01:11:29.707Z,98734.50
2023-03-10T01:13:58.118Z,98726.38
2023-03-10T01:16:25.427Z,98716.66
2023-03-10T01:18:52.058Z,98721.28
2023-03-10T01:21:22.370Z,98706.91
2023-03-10T01:23:49.387Z,98709.63
2023-03-10T01:26:18.499Z,98712.34
2023-03-10T01:28:45.833Z,98705.31
2023-03-10T01:31:12.945Z,98709.63
2023-03-10T01:33:41.081Z,98703.41
2023-03-10T01:36:12.326Z,98700.22
2023-03-10T01:38:39.506Z,98701.66
2023-03-10T01:41:06.660Z,98698.94
2023-03-10T01:43:44.690Z,98697.03
2023-03-10T01:46:35.880Z,98678.06
2023-03-10T01:49:25.836Z,98678.06
2023-03-10T01:52:14.301Z,98667.53
2023-03-10T01:54:56.769Z,98660.19
2023-03-10T01:57:40.262Z,98658.63
2023-03-10T02:00:12.302Z,98653.50
2023-03-10T02:03:03.303Z,98651.91
2023-03-10T02:05:31.451Z,98643.44
2023-03-10T02:07:59.595Z,98641.41
2023-03-10T02:10:27.144Z,98648.41
2023-03-10T02:12:53.801Z,98648.41
2023-03-10T02:15:20.413Z,98635.63
2023-03-10T02:17:48.299Z,98639.94
2023-03-10T02:20:22.510Z,98631.00
2023-03-10T02:22:50.164Z,98627.19
2023-03-10T02:25:34.844Z,98626.38
2023-03-10T02:28:01.703Z,98621.75
2023-03-10T02:30:41.718Z,98620.16
2023-03-10T02:33:13.658Z,98614.28
2023-03-10T02:35:40.657Z,98623.22
2023-03-10T02:38:07.330Z,98632.44
2023-03-10T02:40:47.499Z,98618.88
2023-03-10T02:43:19.007Z,98618.88
2023-03-10T02:45:48.065Z,98622.41
2023-03-10T02:48:28.464Z,98609.97
2023-03-10T02:50:56.600Z,98612.69
2023-03-10T02:53:26.491Z,98614.59
2023-03-10T02:55:53.875Z,98614.59
2023-03-10T02:58:22.796Z,98609.16
2023-03-10T03:00:50.425Z,98606.78
2023-03-10T03:03:19.235Z,98606.78
2023-03-10T03:05:45.784Z,98601.66
2023-03-10T03:08:13.318Z,98599.44
2023-03-10T03:10:40.075Z,98596.75
2023-03-10T03:13:07.570Z,98597.53
2023-03-10T03:15:34.725Z,98606.00
2023-03-10T03:18:02.043Z,98601.38
2023-03-10T03:20:30.018Z,98599.78
2023-03-10T03:22:57.885Z,98606.31
2023-03-10T03:25:26.980Z,98602.50
2023-03-10T03:27:53.921Z,98605.22
2023-03-10T03:30:23.998Z,98608.22
2023-03-10T03:32:51.550Z,98617.16
2023-03-10T03:35:28.086Z,98596.25
2023-03-10T03:37:56.111Z,98603.59
2023-03-10T03:40:24.596Z,98593.09
2023-03-10T03:42:52.962Z,98606.63
2023-03-10T03:45:22.324Z,98591.16
2023-03-10T03:47:49.260Z,98593.09
2023-03-10T03:50:17.296Z,98569.47
2023-03-10T03:52:44.554Z,98567.91
2023-03-10T03:55:13.478Z,98556.25
2023-03-10T03:57:40.182Z,98556.25
2023-03-10T04:00:12.318Z,98567.91
2023-03-10T04:02:39.179Z,98579.03
2023-03-10T04:05:06.504Z,98569.00
2023-03-10T04:07:33.305Z,98572.53
2023-03-10T04:09:59.863Z,98571.69
2023-03-10T04:12:27.375Z,98570.91
2023-03-10T04:14:53.869Z,98564.69
2023-03-10T04:17:20.489Z,98566.63
2023-03-10T04:19:54.108Z,98567.41
2023-03-10T04:22:27.595Z,98566.63
2023-03-10T04:24:54.230Z,98569.66
2023-03-10T04:27:21.194Z,98568.84
2023-03-10T04:29:47.784Z,98570.75
2023-03-10T04:32:14.427Z,98582.09
2023-03-10T04:34:41.011Z,98573.63
2023-03-10T04:37:07.964Z,98572.38
2023-03-10T04:39:35.880Z,98573.94
2023-03-10T04:42:02.571Z,98582.38
2023-03-10T04:44:31.388Z,98566.94
2023-03-10T04:46:58.681Z,98563.41
2023-03-10T04:49:25.346Z,98568.53
2023-03-10T04:51:51.847Z,98566.13
2023-03-10T04:54:18.623Z,98561.53
2023-03-10T04:56:45.174Z,98563.41
2023-03-10T04:59:11.702Z,98562.63
2023-03-10T05:01:38.293Z,98564.25
2023-03-10T05:04:05.692Z,98559.91
2023-03-10T05:06:32.490Z,98563.09
2023-03-10T05:09:00.933Z,98550.00
2023-03-10T05:11:27.628Z,98557.22
2023-03-10T05:13:54.189Z,98564.03
2023-03-10T05:16:22.960Z,98559.09
2023-03-10T05:18:49.604Z,98560.34
2023-03-10T05:21:16.181Z,98561.63
2023-03-10T05:23:42.791Z,98560.50
2023-03-10T05:26:11.181Z,98552.53
2023-03-10T05:28:38.148Z,98554.13
2023-03-10T05:31:10.259Z,98567.69
2023-03-10T05:33:36.842Z,98556.84
2023-03-10T05:36:05.689Z,98560.34
2023-03-10T05:38:32.413Z,98567.69
2023-03-10T05:40:58.911Z,98573.13
2023-03-10T05:43:25.432Z,98562.56
2023-03-10T05:45:56.979Z,98563.38
2023-03-10T05:48:24.270Z,98561.47
2023-03-10T05:51:17.164Z,98563.06
2023-03-10T05:53:43.707Z,98560.34
2023-03-10T05:56:13.749Z,98560.81
2023-03-10T05:58:40.958Z,98567.03
2023-03-10T06:01:10.421Z,98560.81
2023-03-10T06:03:37.979Z,98577.88
2023-03-10T06:06:06.875Z,98565.44
2023-03-10T06:08:33.821Z,98571.66
2023-03-10T06:11:00.544Z,98573.72
2023-03-10T06:13:27.292Z,98568.28
2023-03-10T06:15:58.188Z,98568.00
2023-03-10T06:18:25.860Z,98573.41
2023-03-10T06:20:56.011Z,98568.78
2023-03-10T06:23:23.155Z,98565.28
2023-03-10T06:26:06.854Z,98566.88
2023-03-10T06:28:35.641Z,98569.09
2023-03-10T06:31:07.305Z,98568.00
2023-03-10T06:33:34.843Z,98565.59
2023-03-10T06:36:01.556Z,98573.72
2023-03-10T06:38:28.174Z,98579.16
2023-03-10T06:40:54.941Z,98573.72
2023-03-10T06:43:21.629Z,98575.97
2023-03-10T06:45:49.208Z,98576.44
2023-03-10T06:48:16.288Z,98569.44
2023-03-10T06:50:50.409Z,98572.94
2023-03-10T06:53:19.497Z,98571.50
2023-03-10T06:55:59.126Z,98562.72
2023-03-10T06:58:25.777Z,98560.00
2023-03-10T07:00:52.765Z,98570.53
2023-03-10T07:03:19.737Z,98567.00
2023-03-10T07:05:46.254Z,98564.31
2023-03-10T07:08:12.742Z,98570.19
2023-03-10T07:10:39.397Z,98570.53
2023-03-10T07:13:06.085Z,98569.72
2023-03-10T07:15:32.671Z,98572.44
2023-03-10T07:18:00.382Z,98564.31
2023-03-10T07:20:26.990Z,98578.66
2023-03-10T07:22:53.643Z,98577.06
2023-03-10T07:25:20.222Z,98577.06
2023-03-10T07:27:46.746Z,98583.59
2023-03-10T07:30:13.971Z,98577.06
2023-03-10T07:32:40.550Z,98569.38
2023-03-10T07:35:07.757Z,98569.09
2023-03-10T07:37:38.078Z,98576.41
2023-03-10T07:40:07.496Z,98578.00
2023-03-10T07:42:34.184Z,98583.44
2023-03-10T07:45:00.770Z,98586.59
2023-03-10T07:47:27.338Z,98589.97
2023-03-10T07:49:53.842Z,98585.03
2023-03-10T07:52:20.467Z,98595.88
2023-03-10T07:54:47.043Z,98585.03
2023-03-10T07:57:14.414Z,98588.53
2023-03-10T07:59:41.950Z,98591.25
2023-03-10T08:02:12.241Z,98597.78
2023-03-10T08:04:38.943Z,98585.03
2023-03-10T08:07:05.837Z,98584.53
2023-03-10T08:09:33.065Z,98588.88
2023-03-10T08:12:00.578Z,98591.56
2023-03-10T08:14:31.948Z,98588.53
2023-03-10T08:16:59.026Z,98588.22
2023-03-10T08:19:27.120Z,98582.78
2023-03-10T08:21:57.844Z,98584.38
2023-03-10T08:24:25.500Z,98584.38
2023-03-10T08:26:52.012Z,98588.22
2023-03-10T08:29:18.698Z,98582.47
2023-03-10T08:31:45.306Z,98594.44
2023-03-10T08:34:12.386Z,98599.88
2023-03-10T08:36:40.179Z,98599.53
2023-03-10T08:39:08.200Z,98600.31
2023-03-10T08:41:42.669Z,98591.38
2023-03-10T08:44:11.750Z,98592.50
2023-03-10T08:46:38.393Z,98604.50
2023-03-10T08:49:05.042Z,98597.94
2023-03-10T08:51:31.692Z,98600.97
2023-03-10T08:53:58.244Z,98607.66
2023-03-10T08:56:25.153Z,98608.47
2023-03-10T08:58:56.664Z,98601.63
2023-03-10T09:01:23.295Z,98603.53
2023-03-10T09:03:50.180Z,98612.47
2023-03-10T09:06:16.837Z,98613.28
2023-03-10T09:08:43.948Z,98622.19
2023-03-10T09:11:16.045Z,98624.91
2023-03-10T09:13:42.656Z,98618.34
2023-03-10T09:16:13.454Z,98619.50
2023-03-10T09:18:40.137Z,98627.31
2023-03-10T09:21:07.110Z,98615.19
2023-03-10T09:23:34.025Z,98614.06
2023-03-10T09:26:00.748Z,98608.63
2023-03-10T09:28:27.582Z,98610.22
2023-03-10T09:30:55.055Z,98620.63
2023-03-10T09:33:22.878Z,98617.56
2023-03-10T09:36:06.045Z,98617.56
2023-03-10T09:38:33.495Z,98619.19
2023-03-10T09:41:16.673Z,98630.03
2023-03-10T09:43:50.867Z,98645.97
2023-03-10T09:46:20.272Z,98631.91
2023-03-10T09:49:05.006Z,98639.25
2023-03-10T09:51:31.765Z,98628.91
2023-03-10T09:54:09.084Z,98638.16
2023-03-10T09:56:36.497Z,98646.31
2023-03-10T09:59:11.521Z,98650.13
2023-03-10T10:01:44.332Z,98659.88
2023-03-10T10:04:21.775Z,98657.16
2023-03-10T10:06:51.107Z,98657.47
2023-03-10T10:09:42.193Z,98659.88
2023-03-10T10:12:17.259Z,98671.50
2023-03-10T10:14:56.812Z,98666.09
2023-03-10T10:17:52.993Z,98675.81
2023-03-10T10:20:32.127Z,98682.81
2023-03-10T10:22:58.651Z,98684.44
2023-03-10T10:25:31.831Z,98684.44
2023-03-10T10:28:01.105Z,98679.00
2023-03-10T10:30:48.533Z,98678.69
2023-03-10T10:33:15.953Z,98676.31
2023-03-10T10:36:00.793Z,98677.09
2023-03-10T10:38:30.187Z,98680.25
2023-03-10T10:40:59.638Z,98677.56
2023-03-10T10:43:26.383Z,98681.38
2023-03-10T10:45:58.027Z,98698.13
2023-03-10T10:48:52.547Z,98692.25
2023-03-10T10:51:20.490Z,98702.75
2023-03-10T10:53:47.427Z,98711.69
2023-03-10T10:56:17.032Z,98710.59
2023-03-10T10:58:46.231Z,98716.81
2023-03-10T11:01:17.065Z,98721.13
2023-03-10T11:03:46.201Z,98713.91
2023-03-10T11:06:21.702Z,98713.28
2023-03-10T11:08:52.562Z,98716.16
2023-03-10T11:11:49.401Z,98711.22
2023-03-10T11:14:37.819Z,98703.53
2023-03-10T11:17:18.819Z,98711.81
2023-03-10T11:20:06.103Z,98712.31
2023-03-10T11:22:55.631Z,98699.19
2023-03-10T11:25:47.159Z,98704.63
2023-03-10T11:28:28.498Z,98706.22
2023-03-10T11:31:07.246Z,98708.63
2023-03-10T11:33:39.393Z,98715.19
2023-03-10T11:36:19.672Z,98705.13
2023-03-10T11:38:54.654Z,98714.84
2023-03-10T11:41:28.520Z,98718.69
2023-03-10T11:44:13.869Z,98735.75
2023-03-10T11:46:59.054Z,98727.63
2023-03-10T11:49:30.890Z,98734.19
2023-03-10T11:52:00.562Z,98745.81
2023-03-10T11:54:53.503Z,98743.91
2023-03-10T11:57:36.820Z,98755.06
2023-03-10T12:00:07.904Z,98764.03
2023-03-10T12:02:58.941Z,98753.19
2023-03-10T12:05:27.154Z,98740.69
2023-03-10T12:08:00.695Z,98749.63
2023-03-10T12:10:27.286Z,98739.91
2023-03-10T12:12:54.285Z,98740.41
2023-03-10T12:15:26.426Z,98745.50
2023-03-10T12:17:54.158Z,98751.41
2023-03-10T12:20:20.659Z,98749.13
2023-03-10T12:22:53.414Z,98760.66
2023-03-10T12:25:29.197Z,98773.28
2023-03-10T12:28:16.800Z,98779.81
2023-03-10T12:30:49.155Z,98785.22
2023-03-10T12:33:31.000Z,98795.63
2023-03-10T12:36:18.838Z,98813.34
2023-03-10T12:38:54.331Z,98817.19
2023-03-10T12:41:45.369Z,98818.31
2023-03-10T12:44:33.437Z,98820.22
2023-03-10T12:47:09.350Z,98844.34
2023-03-10T12:49:46.860Z,98870.69
2023-03-10T12:52:24.289Z,98878.81
2023-03-10T12:55:17.435Z,98901.63
2023-03-10T12:57:46.949Z,98919.84
2023-03-10T13:00:38.038Z,98929.09
2023-03-10T13:03:11.196Z,98949.22
2023-03-10T13:05:41.727Z,98967.09
2023-03-10T13:08:22.815Z,98958.16
2023-03-10T13:10:55.532Z,99001.59
2023-03-10T13:13:27.080Z,99029.88
2023-03-10T13:15:59.585Z,99035.28
2023-03-10T13:18:26.411Z,99071.66
2023-03-10T13:20:53.013Z,99090.38
2023-03-10T13:23:24.442Z,99091.16
2023-03-10T13:26:02.745Z,99114.81
2023-03-10T13:28:34.584Z,99135.72
2023-03-10T13:31:19.943Z,99121.03
2023-03-10T13:33:53.635Z,99162.03
2023-03-10T13:36:40.859Z,99188.38
2023-03-10T13:39:16.843Z,99198.44
2023-03-10T13:41:46.866Z,99220.16
2023-03-10T13:44:41.112Z,99243.47
2023-03-10T13:47:16.640Z,99265.19
2023-03-10T13:49:49.298Z,99293.63
2023-03-10T13:52:19.990Z,99271.91
2023-03-10T13:54:46.966Z,99281.66
2023-03-10T13:57:29.436Z,99277.84
2023-03-10T13:59:58.560Z,99283.28
2023-03-10T14:02:31.984Z,99287.06
2023-03-10T14:05:00.691Z,99303.38
2023-03-10T14:07:29.841Z,99339.78
2023-03-10T14:10:05.759Z,99368.50
2023-03-10T14:12:38.469Z,99388.34
2023-03-10T14:15:16.803Z,99410.06
2023-03-10T14:17:45.027Z,99419.00
2023-03-10T14:20:13.329Z,99432.88
2023-03-10T14:22:41.564Z,99453.50
2023-03-10T14:25:20.656Z,99469.78
2023-03-10T14:27:51.995Z,99487.94
2023-03-10T14:30:31.277Z,99501.25
2023-03-10T14:33:00.423Z,99502.84
2023-03-10T14:35:29.489Z,99517.22
2023-03-10T14:37:56.247Z,99528.88
2023-03-10T14:40:24.828Z,99547.88
2023-03-10T14:42:53.028Z,99556.03
2023-03-10T14:45:27.697Z,99564.16
2023-03-10T14:47:57.771Z,99564.16
2023-03-10T14:50:25.739Z,99599.97
2023-03-10T14:52:52.591Z,99589.44
2023-03-10T14:55:19.262Z,99624.72
2023-03-10T14:57:48.080Z,99614.16
2023-03-10T15:00:21.091Z,99632.03
2023-03-10T15:02:48.093Z,99643.22
2023-03-10T15:05:19.641Z,99644.00
2023-03-10T15:07:48.757Z,99645.59
2023-03-10T15:10:20.040Z,99665.72
2023-03-10T15:12:49.018Z,99676.00
2023-03-10T15:15:18.042Z,99679.03
2023-03-10T15:17:45.547Z,99716.19
2023-03-10T15:20:20.203Z,99732.22
2023-03-10T15:22:47.393Z,99720.22
2023-03-10T15:25:16.553Z,99738.44
2023-03-10T15:27:44.322Z,99736.53
2023-03-10T15:30:18.595Z,99760.47
2023-03-10T15:32:45.508Z,99775.66
2023-03-10T15:35:13.194Z,99782.19
2023-03-10T15:37:39.718Z,99792.22
2023-03-10T15:40:06.950Z,99816.97
2023-03-10T15:42:33.456Z,99836.78
2023-03-10T15:45:00.715Z,99851.44
2023-03-10T15:47:28.251Z,99850.06
2023-03-10T15:49:54.776Z,99857.38
2023-03-10T15:52:23.321Z,99860.09
2023-03-10T15:54:50.105Z,99857.09
2023-03-10T15:57:16.697Z,99859.81
2023-03-10T15:59:43.406Z,99850.25
2023-03-10T16:02:11.892Z,99859.22
2023-03-10T16:04:38.626Z,99871.69
2023-03-10T16:07:05.749Z,99868.66
2023-03-10T16:09:33.178Z,99889.59
2023-03-10T16:11:59.791Z,99915.94
2023-03-10T16:14:26.376Z,99915.13
2023-03-10T16:16:53.032Z,99933.34
2023-03-10T16:19:19.534Z,99949.63
2023-03-10T16:21:46.316Z,99948.84
2023-03-10T16:24:13.093Z,99981.41
2023-03-10T16:26:40.171Z,99962.41
2023-03-10T16:29:06.734Z,99974.06
2023-03-10T16:31:33.391Z,99974.34
2023-03-10T16:33:59.919Z,99977.38
2023-03-10T16:36:28.439Z,99991.75
2023-03-10T16:38:55.555Z,99989.34
2023-03-10T16:41:23.148Z,100001.81
2023-03-10T16:43:50.040Z,100023.84
2023-03-10T16:46:25.474Z,100040.13
2023-03-10T16:48:54.109Z,100036.56
2023-03-10T16:51:31.857Z,100043.41
2023-03-10T16:54:08.548Z,100036.88
2023-03-10T16:56:38.040Z,100045.03
2023-03-10T16:59:05.548Z,100060.78
2023-03-10T17:01:32.521Z,100073.56
2023-03-10T17:04:00.321Z,100080.63
2023-03-10T17:06:31.177Z,100096.91
2023-03-10T17:08:58.847Z,100102.34
2023-03-10T17:11:28.319Z,100117.81
2023-03-10T17:13:57.626Z,100115.91
2023-03-10T17:16:30.285Z,100140.34
2023-03-10T17:19:02.512Z,100132.22
2023-03-10T17:21:33.275Z,100142.25
2023-03-10T17:23:59.821Z,100144.94
2023-03-10T17:26:26.432Z,100142.25
2023-03-10T17:28:53.076Z,100153.09
2023-03-10T17:31:29.017Z,100160.97
2023-03-10T17:33:58.858Z,100182.69
2023-03-10T17:36:25.626Z,100198.97
2023-03-10T17:38:53.982Z,100178.06
2023-03-10T17:41:21.352Z,100207.13
2023-03-10T17:43:48.615Z,100198.19
2023-03-10T17:46:18.899Z,100204.41
2023-03-10T17:48:45.951Z,100205.22
2023-03-10T17:51:31.121Z,100209.03
2023-03-10T17:54:00.998Z,100222.63
2023-03-10T17:56:28.364Z,100233.75
2023-03-10T17:58:56.927Z,100246.50
2023-03-10T18:01:27.331Z,100246.50
2023-03-10T18:03:56.122Z,100260.09
2023-03-10T18:06:26.207Z,100296.50
2023-03-10T18:08:55.928Z,100302.72
2023-03-10T18:11:23.784Z,100310.88
2023-03-10T18:13:50.378Z,100281.81
2023-03-10T18:16:28.826Z,100286.13
2023-03-10T18:18:56.617Z,100276.13
2023-03-10T18:21:24.056Z,100281.00
2023-03-10T18:23:51.591Z,100281.81
2023-03-10T18:26:22.533Z,100287.25
2023-03-10T18:28:49.329Z,100303.53
2023-03-10T18:31:21.633Z,100309.75
2023-03-10T18:33:48.621Z,100299.72
2023-03-10T18:36:17.059Z,100304.06
2023-03-10T18:38:45.787Z,100315.75
2023-03-10T18:41:12.389Z,100332.03
2023-03-10T18:43:39.232Z,100334.75
2023-03-10T18:46:06.757Z,100338.25
2023-03-10T18:48:33.447Z,100336.66
2023-03-10T18:51:00.234Z,100350.22
2023-03-10T18:53:27.092Z,100353.75
2023-03-10T18:55:54.502Z,100346.72
2023-03-10T18:58:22.382Z,100360.28
2023-03-10T19:00:48.981Z,100352.41
2023-03-10T19:03:16.563Z,100372.22
2023-03-10T19:05:44.111Z,100376.84
2023-03-10T19:08:11.733Z,100395.84
2023-03-10T19:10:39.474Z,100392.31
2023-03-10T19:13:06.263Z,100392.03
2023-03-10T19:15:32.842Z,100402.88
2023-03-10T19:17:59.364Z,100402.88
2023-03-10T19:20:26.036Z,100415.66
2023-03-10T19:22:52.657Z,100423.00
2023-03-10T19:25:19.744Z,100426.53
2023-03-10T19:27:46.549Z,100424.91
2023-03-10T19:30:16.323Z,100431.94
2023-03-10T19:32:44.150Z,100438.47
2023-03-10T19:35:11.522Z,100436.88
2023-03-10T19:37:39.260Z,100435.22
2023-03-10T19:40:08.425Z,100441.50
2023-03-10T19:42:36.896Z,100441.50
2023-03-10T19:45:03.796Z,100443.38
2023-03-10T19:47:31.160Z,100449.63
2023-03-10T19:49:57.695Z,100442.56
2023-03-10T19:52:24.699Z,100453.16
2023-03-10T19:54:51.964Z,100450.44
2023-03-10T19:57:18.588Z,100463.22
2023-03-10T19:59:45.176Z,100469.44
2023-03-10T20:02:14.225Z,100464.03
2023-03-10T20:04:41.220Z,100469.44
2023-03-10T20:07:08.550Z,100480.31
2023-03-10T20:09:35.888Z,100475.69
2023-03-10T20:12:02.707Z,100485.75
2023-03-10T20:14:29.745Z,100499.31
2023-03-10T20:16:56.448Z,100493.88
2023-03-10T20:19:23.102Z,100489.53
2023-03-10T20:21:50.725Z,100495.25
2023-03-10T20:24:17.987Z,100508.03
2023-03-10T20:26:44.715Z,100511.25
2023-03-10T20:29:11.888Z,100521.31
2023-03-10T20:31:38.479Z,100532.97
2023-03-10T20:34:06.712Z,100535.69
2023-03-10T20:36:34.196Z,100539.25
2023-03-10T20:39:00.862Z,100545.75
2023-03-10T20:41:27.454Z,100547.66
2023-03-10T20:43:55.284Z,100549.56
2023-03-10T20:46:22.924Z,100552.28
2023-03-10T20:48:50.812Z,100554.97
2023-03-10T20:51:19.218Z,100558.00
2023-03-10T20:53:45.938Z,100553.63
2023-03-10T20:56:14.344Z,100560.16
2023-03-10T20:58:41.246Z,100569.09
2023-03-10T21:01:15.256Z,100569.41
2023-03-10T21:03:41.895Z,100583.22
2023-03-10T21:06:08.448Z,100579.72
2023-03-10T21:08:34.983Z,100584.34
2023-03-10T21:11:01.593Z,100595.19
2023-03-10T21:13:28.218Z,100590.88
2023-03-10T21:15:55.004Z,100595.19
2023-03-10T21:18:21.585Z,100597.91
2023-03-10T21:20:48.124Z,100613.09
2023-03-10T21:23:14.719Z,100616.66
2023-03-10T21:25:41.732Z,100615.28
2023-03-10T21:28:08.600Z,100624.25
2023-03-10T21:30:35.320Z,100631.03
2023-03-10T21:33:01.998Z,100634.03
2023-03-10T21:35:32.041Z,100638.66
2023-03-10T21:37:59.387Z,100644.34
2023-03-10T21:40:26.534Z,100643.53
2023-03-10T21:42:53.242Z,100643.00
2023-03-10T21:45:22.531Z,100645.72
2023-03-10T21:47:49.511Z,100653.31
2023-03-10T21:50:17.211Z,100665.28
2023-03-10T21:52:44.197Z,100665.28
2023-03-10T21:55:18.110Z,100673.66
2023-03-10T21:57:44.903Z,100659.56
2023-03-10T22:00:12.771Z,100667.16
2023-03-10T22:02:39.549Z,100660.94
2023-03-10T22:05:06.969Z,100654.97
2023-03-10T22:07:33.549Z,100665.84
2023-03-10T22:10:00.077Z,100668.81
2023-03-10T22:12:26.657Z,100674.22
2023-03-10T22:14:56.404Z,100673.44
2023-03-10T22:17:24.848Z,100679.94
2023-03-10T22:19:54.668Z,100682.94
2023-03-10T22:22:22.701Z,100687.53
2023-03-10T22:24:49.694Z,100690.50
2023-03-10T22:27:16.457Z,100691.59
2023-03-10T22:29:43.031Z,100704.34
2023-03-10T22:32:09.557Z,100696.47
2023-03-10T22:34:36.094Z,100694.84
2023-03-10T22:37:02.619Z,100688.63
2023-03-10T22:39:29.156Z,100692.41
2023-03-10T22:41:55.705Z,100707.88
2023-03-10T22:44:22.884Z,100704.34
2023-03-10T22:46:50.055Z,100707.88
2023-03-10T22:49:17.413Z,100701.63
2023-03-10T22:51:43.948Z,100707.88
2023-03-10T22:54:10.437Z,100711.97
2023-03-10T22:56:36.951Z,100708.44
2023-03-10T22:59:04.592Z,100705.97
2023-03-10T23:01:31.149Z,100707.88
2023-03-10T23:03:57.853Z,100721.44
2023-03-10T23:06:26.276Z,100726.06
2023-03-10T23:08:52.839Z,100729.88
2023-03-10T23:11:19.462Z,100732.56
2023-03-10T23:13:46.091Z,100735.28
2023-03-10T23:16:12.706Z,100735.53
2023-03-10T23:18:39.440Z,100740.16
2023-03-10T23:21:07.192Z,100742.06
2023-03-10T23:23:33.761Z,100749.41
2023-03-10T23:26:00.419Z,100747.75
2023-03-10T23:28:27.546Z,100750.47
2023-03-10T23:30:54.457Z,100748.03
2023-03-10T23:33:22.992Z,100750.75
2023-03-10T23:35:54.491Z,100756.44
2023-03-10T23:38:23.603Z,100742.88
2023-03-10T23:40:50.903Z,100746.66
2023-03-10T23:43:18.278Z,100752.94
2023-03-10T23:45:44.929Z,100748.56
2023-03-10T23:48:16.051Z,100755.06
2023-03-10T23:50:44.411Z,100748.03
2023-03-10T23:53:12.501Z,100750.75
2023-03-10T23:55:42.482Z,100750.75
2023-03-10T23:58:09.502Z,100749.09
